createdAt,value
2017-12-04T00:00:33.125Z,15.57
2017-12-04T00:01:35.653Z,15.90
2017-12-04T00:02:38.225Z,14.73
2017-12-04T00:03:40.788Z,15.10
2017-12-04T00:04:43.300Z,14.07
2017-12-04T00:05:45.821Z,14.15
2017-12-04T00:06:48.350Z,14.27
2017-12-04T00:07:51.649Z,14.52
2017-12-04T00:08:54.207Z,13.80
2017-12-04T00:09:57.496Z,15.85
2017-12-04T00:11:00.066Z,15.48
2017-12-04T00:12:02.594Z,15.45
2017-12-04T00:13:05.125Z,13.82
2017-12-04T00:14:07.685Z,14.40
2017-12-04T00:15:10.202Z,14.55
2017-12-04T00:16:12.745Z,14.68
2017-12-04T00:17:15.265Z,16.05
2017-12-04T00:18:17.783Z,15.05
2017-12-04T00:19:20.348Z,15.88
2017-12-04T00:20:22.878Z,14.60
2017-12-04T00:21:25.406Z,15.70
2017-12-04T00:22:34.727Z,17.60
2017-12-04T00:23:37.397Z,15.45
2017-12-04T00:24:40.717Z,13.90
2017-12-04T00:25:43.299Z,14.77
2017-12-04T00:26:45.845Z,13.65
2017-12-04T00:27:48.365Z,15.07
2017-12-04T00:28:50.893Z,14.90
2017-12-04T00:29:53.413Z,15.60
2017-12-04T00:30:56.735Z,15.02
2017-12-04T00:31:59.257Z,15.90
2017-12-04T00:33:01.773Z,15.43
2017-12-04T00:34:04.310Z,16.23
2017-12-04T00:35:07.597Z,17.00
2017-12-04T00:36:10.142Z,16.37
2017-12-04T00:37:13.434Z,15.52
2017-12-04T00:38:16.762Z,17.40
2017-12-04T00:39:19.285Z,18.70
2017-12-04T00:40:22.578Z,17.70
2017-12-04T00:41:26.030Z,16.37
2017-12-04T00:42:28.561Z,16.45
2017-12-04T00:43:31.081Z,17.50
2017-12-04T00:44:34.365Z,17.42
2017-12-04T00:45:37.648Z,15.98
2017-12-04T00:46:40.980Z,16.58
2017-12-04T00:47:43.499Z,16.90
2017-12-04T00:48:46.790Z,17.55
2017-12-04T00:49:50.078Z,17.15
2017-12-04T00:50:53.367Z,17.10
2017-12-04T00:51:56.709Z,17.08
2017-12-04T00:52:59.233Z,16.58
2017-12-04T00:54:01.753Z,16.20
2017-12-04T00:55:04.269Z,16.37
2017-12-04T00:56:06.802Z,19.00
2017-12-04T00:57:10.121Z,17.05
2017-12-04T00:58:12.633Z,18.50
2017-12-04T00:59:15.157Z,18.70
2017-12-04T01:00:17.682Z,17.25
2017-12-04T01:01:20.973Z,18.33
2017-12-04T01:02:24.301Z,16.35
2017-12-04T01:03:26.857Z,17.37
2017-12-04T01:04:29.405Z,16.90
2017-12-04T01:05:31.921Z,19.08
2017-12-04T01:06:34.450Z,17.10
2017-12-04T01:07:36.974Z,17.00
2017-12-04T01:08:40.296Z,17.42
2017-12-04T01:09:42.820Z,18.15
2017-12-04T01:10:46.113Z,17.52
2017-12-04T01:11:49.390Z,17.83
2017-12-04T01:12:52.687Z,18.52
2017-12-04T01:13:56.022Z,18.33
2017-12-04T01:14:58.568Z,20.33
2017-12-04T01:16:01.088Z,21.25
2017-12-04T01:17:04.378Z,20.73
2017-12-04T01:18:06.900Z,18.05
2017-12-04T01:19:09.468Z,16.98
2017-12-04T01:20:11.986Z,19.50
2017-12-04T01:21:15.276Z,21.20
2017-12-04T01:22:18.565Z,21.65
2017-12-04T01:23:21.090Z,19.17
2017-12-04T01:24:23.653Z,21.52
2017-12-04T01:25:26.165Z,18.30
2017-12-04T01:26:28.693Z,21.52
2017-12-04T01:27:31.970Z,22.02
2017-12-04T01:28:34.506Z,21.55
2017-12-04T01:29:37.073Z,20.02
2017-12-04T01:30:39.622Z,20.83
2017-12-04T01:31:42.133Z,21.75
2017-12-04T01:32:44.661Z,15.35
2017-12-04T01:33:47.179Z,20.62
2017-12-04T01:34:49.703Z,20.33
2017-12-04T01:35:52.271Z,20.42
2017-12-04T01:36:54.794Z,20.10
2017-12-04T01:37:58.113Z,22.08
2017-12-04T01:39:00.645Z,20.37
2017-12-04T01:40:03.157Z,20.62
2017-12-04T01:41:05.682Z,20.48
2017-12-04T01:42:08.969Z,21.25
2017-12-04T01:43:12.293Z,20.95
2017-12-04T01:44:14.810Z,23.20
2017-12-04T01:45:18.093Z,20.42
2017-12-04T01:46:21.378Z,20.88
2017-12-04T01:47:24.667Z,20.67
2017-12-04T01:48:27.984Z,20.88
2017-12-04T01:49:30.515Z,21.05
2017-12-04T01:50:33.801Z,21.30
2017-12-04T01:51:37.092Z,20.88
2017-12-04T01:52:39.660Z,22.10
2017-12-04T01:53:42.181Z,20.77
2017-12-04T01:54:44.709Z,20.92
2017-12-04T01:55:47.293Z,20.52
2017-12-04T01:56:49.815Z,21.10
2017-12-04T01:57:53.137Z,20.23
2017-12-04T01:58:55.710Z,20.30
2017-12-04T01:59:58.229Z,20.85
2017-12-04T02:01:01.517Z,21.65
2017-12-04T02:02:04.800Z,19.80
2017-12-04T02:03:08.089Z,22.05
2017-12-04T02:04:10.645Z,22.98
2017-12-04T02:05:13.928Z,21.17
2017-12-04T02:06:17.338Z,20.48
2017-12-04T02:07:19.858Z,21.55
2017-12-04T02:08:22.381Z,20.83
2017-12-04T02:09:25.105Z,21.30
2017-12-04T02:10:28.396Z,19.25
2017-12-04T02:11:31.749Z,19.77
2017-12-04T02:12:34.275Z,21.15
2017-12-04T02:13:36.787Z,16.70
2017-12-04T02:14:39.358Z,19.05
2017-12-04T02:15:41.886Z,16.80
2017-12-04T02:16:44.405Z,17.58
2017-12-04T02:17:47.706Z,16.55
2017-12-04T02:18:50.980Z,16.45
2017-12-04T02:19:54.301Z,17.30
2017-12-04T02:20:56.853Z,16.65
2017-12-04T02:21:59.377Z,16.20
2017-12-04T02:23:01.900Z,16.42
2017-12-04T02:24:04.418Z,17.35
2017-12-04T02:25:07.711Z,15.88
2017-12-04T02:26:11.046Z,15.90
2017-12-04T02:27:13.566Z,14.55
2017-12-04T02:28:16.853Z,15.73
2017-12-04T02:29:20.133Z,16.77
2017-12-04T02:30:25.246Z,17.23
2017-12-04T02:31:28.577Z,17.55
2017-12-04T02:32:31.097Z,17.50
2017-12-04T02:33:34.380Z,17.33
2017-12-04T02:34:37.664Z,18.15
2017-12-04T02:35:40.949Z,17.55
2017-12-04T02:36:44.276Z,16.73
2017-12-04T02:37:46.802Z,18.58
2017-12-04T02:38:50.092Z,17.60
2017-12-04T02:39:53.395Z,18.48
2017-12-04T02:40:55.924Z,18.80
2017-12-04T02:41:58.488Z,20.62
2017-12-04T02:43:01.014Z,21.15
2017-12-04T02:44:03.532Z,22.85
2017-12-04T02:45:06.809Z,19.48
2017-12-04T02:46:09.374Z,21.80
2017-12-04T02:47:11.899Z,20.30
2017-12-04T02:48:14.417Z,23.27
2017-12-04T02:49:17.693Z,22.13
2017-12-04T02:50:20.978Z,24.00
2017-12-04T02:51:24.309Z,23.12
2017-12-04T02:52:26.824Z,23.10
2017-12-04T02:53:29.342Z,21.73
2017-12-04T02:54:31.855Z,23.20
2017-12-04T02:55:35.153Z,24.30
2017-12-04T02:56:38.477Z,20.50
2017-12-04T02:57:40.999Z,24.25
2017-12-04T02:58:44.284Z,22.75
2017-12-04T02:59:47.601Z,22.62
2017-12-04T03:00:50.133Z,20.02
2017-12-04T03:01:53.462Z,23.85
2017-12-04T03:02:55.989Z,21.65
2017-12-04T03:03:59.290Z,22.20
2017-12-04T03:05:01.814Z,21.95
2017-12-04T03:06:04.334Z,24.63
2017-12-04T03:07:06.901Z,22.75
2017-12-04T03:08:09.424Z,25.27
2017-12-04T03:09:12.712Z,23.40
2017-12-04T03:10:15.999Z,23.10
2017-12-04T03:11:19.285Z,22.65
2017-12-04T03:12:22.610Z,22.92
2017-12-04T03:13:25.141Z,23.58
2017-12-04T03:14:28.420Z,21.65
2017-12-04T03:15:31.712Z,22.13
2017-12-04T03:16:35.032Z,21.30
2017-12-04T03:17:37.546Z,23.10
2017-12-04T03:18:40.842Z,22.25
2017-12-04T03:19:44.157Z,18.35
2017-12-04T03:20:46.676Z,19.95
2017-12-04T03:21:49.225Z,21.52
2017-12-04T03:22:51.749Z,20.42
2017-12-04T03:23:54.272Z,19.55
2017-12-04T03:24:56.791Z,18.75
2017-12-04T03:25:59.349Z,20.45
2017-12-04T03:27:01.879Z,19.95
2017-12-04T03:28:05.166Z,19.65
2017-12-04T03:29:08.453Z,20.35
2017-12-04T03:30:11.735Z,18.80
2017-12-04T03:31:15.055Z,20.92
2017-12-04T03:32:17.582Z,19.70
2017-12-04T03:33:20.870Z,20.95
2017-12-04T03:34:24.162Z,18.73
2017-12-04T03:35:26.712Z,16.20
2017-12-04T03:36:30.033Z,19.75
2017-12-04T03:37:32.547Z,19.17
2017-12-04T03:38:35.065Z,21.35
2017-12-04T03:39:37.611Z,20.70
2017-12-04T03:40:40.170Z,20.27
2017-12-04T03:41:43.489Z,19.42
2017-12-04T03:42:46.068Z,17.85
2017-12-04T03:43:48.588Z,18.52
2017-12-04T03:44:51.890Z,17.48
2017-12-04T03:45:54.449Z,19.02
2017-12-04T03:46:56.970Z,15.43
2017-12-04T03:47:59.529Z,18.60
2017-12-04T03:49:02.049Z,19.20
2017-12-04T03:50:04.578Z,19.62
2017-12-04T03:51:07.126Z,19.73
2017-12-04T03:52:09.641Z,17.55
2017-12-04T03:53:12.170Z,17.77
2017-12-04T03:54:14.755Z,19.23
2017-12-04T03:55:18.040Z,20.65
2017-12-04T03:56:21.322Z,19.02
2017-12-04T03:57:24.609Z,19.90
2017-12-04T03:58:27.896Z,19.02
2017-12-04T03:59:31.226Z,18.58
2017-12-04T04:00:33.749Z,20.70
2017-12-04T04:01:37.033Z,20.00
2017-12-04T04:02:40.322Z,20.83
2017-12-04T04:03:42.850Z,19.58
2017-12-04T04:04:45.420Z,20.05
2017-12-04T04:05:48.016Z,20.90
2017-12-04T04:06:51.292Z,18.05
2017-12-04T04:07:54.615Z,18.37
2017-12-04T04:08:57.139Z,17.30
2017-12-04T04:10:00.469Z,18.62
2017-12-04T04:11:02.990Z,19.25
2017-12-04T04:12:06.273Z,18.70
2017-12-04T04:13:09.558Z,19.27
2017-12-04T04:14:12.069Z,19.50
2017-12-04T04:15:14.653Z,19.48
2017-12-04T04:16:17.178Z,18.25
2017-12-04T04:17:19.705Z,20.98
2017-12-04T04:18:22.223Z,18.33
2017-12-04T04:19:24.738Z,18.10
2017-12-04T04:20:30.082Z,19.45
2017-12-04T04:21:33.373Z,20.40
2017-12-04T04:22:36.694Z,18.87
2017-12-04T04:23:39.211Z,18.92
2017-12-04T04:24:42.502Z,18.27
2017-12-04T04:25:45.826Z,17.10
2017-12-04T04:26:48.342Z,18.75
2017-12-04T04:27:50.866Z,18.20
2017-12-04T04:28:53.382Z,17.83
2017-12-04T04:29:56.672Z,16.83
2017-12-04T04:31:00.079Z,18.12
2017-12-04T04:32:02.603Z,16.23
2017-12-04T04:33:05.117Z,17.73
2017-12-04T04:34:07.650Z,16.08
2017-12-04T04:35:10.933Z,17.08
2017-12-04T04:36:14.250Z,17.27
2017-12-04T04:37:16.781Z,16.83
2017-12-04T04:38:19.318Z,18.45
2017-12-04T04:39:21.837Z,18.37
2017-12-04T04:40:24.384Z,17.45
2017-12-04T04:41:27.706Z,20.00
2017-12-04T04:42:30.261Z,18.15
2017-12-04T04:43:32.785Z,19.20
2017-12-04T04:44:35.296Z,17.60
2017-12-04T04:45:37.813Z,18.95
2017-12-04T04:46:40.353Z,17.90
2017-12-04T04:47:42.908Z,17.33
2017-12-04T04:48:45.425Z,18.87
2017-12-04T04:49:48.740Z,15.00
2017-12-04T04:50:51.264Z,18.80
2017-12-04T04:51:53.818Z,15.63
2017-12-04T04:52:56.342Z,19.42
2017-12-04T04:53:58.874Z,19.10
2017-12-04T04:55:01.443Z,16.15
2017-12-04T04:56:04.729Z,17.62
2017-12-04T04:57:08.011Z,18.30
2017-12-04T04:58:11.313Z,18.35
2017-12-04T04:59:13.841Z,17.83
2017-12-04T05:00:16.393Z,16.23
2017-12-04T05:01:18.909Z,17.37
2017-12-04T05:02:21.468Z,16.67
2017-12-04T05:03:24.749Z,17.60
2017-12-04T05:04:28.041Z,17.87
2017-12-04T05:05:31.342Z,17.70
2017-12-04T05:06:33.859Z,16.87
2017-12-04T05:07:36.423Z,15.68
2017-12-04T05:08:38.941Z,17.70
2017-12-04T05:09:41.470Z,18.45
2017-12-04T05:10:43.980Z,17.12
2017-12-04T05:11:46.530Z,17.00
2017-12-04T05:12:49.061Z,17.37
2017-12-04T05:13:51.625Z,15.82
2017-12-04T05:14:54.147Z,17.20
2017-12-04T05:15:56.694Z,15.90
2017-12-04T05:16:59.320Z,15.98
2017-12-04T05:18:01.841Z,16.35
2017-12-04T05:19:04.403Z,17.40
2017-12-04T05:20:06.917Z,16.42
2017-12-04T05:21:09.446Z,17.48
2017-12-04T05:22:11.974Z,15.10
2017-12-04T05:23:15.270Z,16.75
2017-12-04T05:24:17.841Z,16.42
2017-12-04T05:25:20.355Z,15.27
2017-12-04T05:26:22.869Z,13.38
2017-12-04T05:27:25.396Z,16.17
2017-12-04T05:28:27.917Z,14.07
2017-12-04T05:29:30.480Z,14.30
2017-12-04T05:30:32.995Z,15.35
2017-12-04T05:31:35.559Z,14.70
2017-12-04T05:32:38.085Z,15.32
2017-12-04T05:33:40.626Z,13.73
2017-12-04T05:34:43.960Z,15.00
2017-12-04T05:35:46.483Z,13.90
2017-12-04T05:36:49.015Z,14.15
2017-12-04T05:37:51.533Z,14.38
2017-12-04T05:38:54.065Z,13.82
2017-12-04T05:39:57.385Z,13.77
2017-12-04T05:41:00.007Z,14.07
2017-12-04T05:42:02.523Z,12.05
2017-12-04T05:43:05.046Z,13.32
2017-12-04T05:44:08.335Z,13.70
2017-12-04T05:45:11.657Z,12.55
2017-12-04T05:46:14.274Z,13.10
2017-12-04T05:47:16.798Z,11.57
2017-12-04T05:48:19.323Z,13.25
2017-12-04T05:49:22.613Z,13.48
2017-12-04T05:50:25.137Z,13.15
2017-12-04T05:51:27.707Z,12.60
2017-12-04T05:52:30.223Z,11.52
2017-12-04T05:53:32.745Z,11.50
2017-12-04T05:54:35.269Z,12.93
2017-12-04T05:55:37.784Z,12.10
2017-12-04T05:56:40.344Z,12.48
2017-12-04T05:57:42.954Z,12.07
2017-12-04T05:58:45.473Z,10.70
2017-12-04T05:59:48.008Z,11.57
2017-12-04T06:00:50.537Z,11.70
2017-12-04T06:01:53.107Z,11.15
2017-12-04T06:02:55.632Z,10.35
2017-12-04T06:03:58.162Z,11.27
2017-12-04T06:05:00.681Z,9.90
2017-12-04T06:06:03.204Z,10.15
2017-12-04T06:07:05.761Z,9.80
2017-12-04T06:08:08.268Z,9.13
2017-12-04T06:09:10.789Z,8.82
2017-12-04T06:10:13.351Z,9.65
2017-12-04T06:11:15.868Z,10.38
2017-12-04T06:12:18.382Z,9.00
2017-12-04T06:13:20.900Z,8.80
2017-12-04T06:14:23.417Z,8.55
2017-12-04T06:15:25.996Z,10.05
2017-12-04T06:16:28.514Z,9.35
2017-12-04T06:17:31.806Z,10.45
2017-12-04T06:18:35.097Z,8.82
2017-12-04T06:19:38.480Z,8.98
2017-12-04T06:20:41.059Z,8.38
2017-12-04T06:21:43.578Z,10.23
2017-12-04T06:22:46.142Z,10.57
2017-12-04T06:23:48.699Z,10.75
2017-12-04T06:24:51.206Z,10.35
2017-12-04T06:25:54.494Z,11.80
2017-12-04T06:26:57.794Z,11.57
2017-12-04T06:28:00.413Z,10.55
2017-12-04T06:29:03.825Z,13.95
2017-12-04T06:30:07.100Z,12.32
2017-12-04T06:31:10.389Z,13.18
2017-12-04T06:32:13.677Z,11.95
2017-12-04T06:33:16.997Z,11.88
2017-12-04T06:34:19.516Z,12.18
2017-12-04T06:35:22.797Z,13.15
2017-12-04T06:36:25.312Z,12.90
2017-12-04T06:37:27.856Z,12.02
2017-12-04T06:38:30.418Z,12.07
2017-12-04T06:39:33.701Z,12.20
2017-12-04T06:40:36.986Z,12.20
2017-12-04T06:41:39.510Z,11.65
2017-12-04T06:42:42.073Z,12.80
2017-12-04T06:43:44.618Z,11.98
2017-12-04T06:44:47.165Z,13.82
2017-12-04T06:45:49.688Z,10.98
2017-12-04T06:46:52.207Z,12.15
2017-12-04T06:47:54.758Z,12.05
2017-12-04T06:48:57.278Z,11.00
2017-12-04T06:49:59.857Z,11.07
2017-12-04T06:51:02.374Z,11.07
2017-12-04T06:52:04.901Z,10.70
2017-12-04T06:53:08.188Z,10.43
2017-12-04T06:54:11.469Z,10.98
2017-12-04T06:55:14.785Z,11.25
2017-12-04T06:56:17.437Z,10.20
2017-12-04T06:57:19.964Z,10.32
2017-12-04T06:58:22.479Z,9.98
2017-12-04T06:59:24.993Z,10.95
2017-12-04T07:00:27.505Z,10.52
2017-12-04T07:01:30.068Z,9.75
2017-12-04T07:02:32.601Z,11.10
2017-12-04T07:03:35.127Z,9.90
2017-12-04T07:04:37.648Z,10.20
2017-12-04T07:05:40.944Z,10.77
2017-12-04T07:06:43.519Z,10.50
2017-12-04T07:07:46.040Z,10.82
2017-12-04T07:08:48.560Z,10.15
2017-12-04T07:09:51.078Z,10.45
2017-12-04T07:10:53.592Z,10.98
2017-12-04T07:11:56.149Z,10.00
2017-12-04T07:12:58.664Z,9.68
2017-12-04T07:14:01.195Z,11.43
2017-12-04T07:15:03.756Z,9.85
2017-12-04T07:16:06.278Z,11.65
2017-12-04T07:17:08.809Z,11.88
2017-12-04T07:18:11.338Z,11.12
2017-12-04T07:19:13.857Z,10.52
2017-12-04T07:20:16.418Z,10.57
2017-12-04T07:21:18.937Z,11.55
2017-12-04T07:22:21.461Z,9.40
2017-12-04T07:23:24.018Z,10.00
2017-12-04T07:24:26.534Z,9.52
2017-12-04T07:25:29.051Z,9.68
2017-12-04T07:26:31.570Z,10.40
2017-12-04T07:27:34.129Z,10.90
2017-12-04T07:28:36.645Z,11.55
2017-12-04T07:29:39.162Z,10.50
2017-12-04T07:30:41.677Z,10.13
2017-12-04T07:31:44.199Z,9.52
2017-12-04T07:32:46.752Z,8.60
2017-12-04T07:33:50.029Z,9.00
2017-12-04T07:34:53.304Z,8.40
2017-12-04T07:35:56.585Z,8.70
2017-12-04T07:36:59.103Z,8.10
2017-12-04T07:38:01.666Z,8.90
2017-12-04T07:39:04.178Z,7.78
2017-12-04T07:40:07.476Z,6.28
2017-12-04T07:41:10.759Z,7.32
2017-12-04T07:42:14.042Z,6.82
2017-12-04T07:43:17.357Z,6.68
2017-12-04T07:44:19.909Z,5.90
2017-12-04T07:45:22.437Z,7.00
2017-12-04T07:46:24.951Z,5.78
2017-12-04T07:47:27.473Z,6.40
2017-12-04T07:48:29.986Z,4.97
2017-12-04T07:49:32.530Z,5.30
2017-12-04T07:50:35.057Z,6.80
2017-12-04T07:51:37.683Z,5.30
2017-12-04T07:52:40.196Z,5.78
2017-12-04T07:53:42.832Z,5.18
2017-12-04T07:54:45.389Z,5.25
2017-12-04T07:55:47.921Z,6.12
2017-12-04T07:56:51.218Z,5.57
2017-12-04T07:57:54.492Z,5.50
2017-12-04T07:58:57.779Z,5.68
2017-12-04T08:00:01.090Z,4.80
2017-12-04T08:01:03.651Z,4.53
2017-12-04T08:02:06.170Z,6.43
2017-12-04T08:03:08.698Z,5.97
2017-12-04T08:04:11.209Z,6.30
2017-12-04T08:05:13.739Z,6.40
2017-12-04T08:06:16.289Z,6.47
2017-12-04T08:07:18.800Z,6.25
2017-12-04T08:08:21.365Z,5.55
2017-12-04T08:09:23.873Z,6.87
2017-12-04T08:10:26.394Z,6.32
2017-12-04T08:11:28.909Z,6.50
2017-12-04T08:12:31.428Z,6.22
2017-12-04T08:13:33.985Z,5.95
2017-12-04T08:14:36.497Z,5.57
2017-12-04T08:15:39.013Z,5.78
2017-12-04T08:16:41.546Z,6.80
2017-12-04T08:17:44.073Z,6.22
2017-12-04T08:18:47.389Z,6.70
2017-12-04T08:19:49.961Z,7.20
2017-12-04T08:20:52.473Z,6.75
2017-12-04T08:21:55.001Z,7.57
2017-12-04T08:22:57.513Z,6.07
2017-12-04T08:24:00.238Z,6.60
2017-12-04T08:25:02.746Z,6.32
2017-12-04T08:26:05.261Z,5.95
2017-12-04T08:27:07.774Z,6.07
2017-12-04T08:28:10.284Z,6.80
2017-12-04T08:29:12.842Z,6.40
2017-12-04T08:30:15.344Z,6.90
2017-12-04T08:31:17.862Z,5.80
2017-12-04T08:32:21.139Z,6.20
2017-12-04T08:33:24.446Z,6.30
2017-12-04T08:34:27.002Z,6.10
2017-12-04T08:35:29.511Z,6.78
2017-12-04T08:36:32.030Z,6.57
2017-12-04T08:37:35.308Z,6.40
2017-12-04T08:38:38.585Z,6.30
2017-12-04T08:39:41.897Z,5.45
2017-12-04T08:40:44.416Z,6.57
2017-12-04T08:41:46.931Z,6.07
2017-12-04T08:42:49.441Z,5.93
2017-12-04T08:43:51.957Z,6.30
2017-12-04T08:44:54.543Z,5.87
2017-12-04T08:45:57.055Z,5.75
2017-12-04T08:46:59.568Z,5.70
2017-12-04T08:48:02.082Z,5.93
2017-12-04T08:49:04.588Z,5.15
2017-12-04T08:50:07.136Z,5.65
2017-12-04T08:51:10.414Z,4.85
2017-12-04T08:52:13.698Z,5.40
2017-12-04T08:53:17.029Z,6.10
2017-12-04T08:54:19.535Z,4.97
2017-12-04T08:55:22.049Z,6.10
2017-12-04T08:56:24.565Z,6.03
2017-12-04T08:57:27.083Z,4.85
2017-12-04T08:58:29.633Z,5.65
2017-12-04T08:59:32.151Z,5.03
2017-12-04T09:00:34.678Z,5.68
2017-12-04T09:01:37.185Z,5.90
2017-12-04T09:02:39.709Z,5.70
2017-12-04T09:03:42.259Z,5.28
2017-12-04T09:04:44.780Z,6.37
2017-12-04T09:05:47.310Z,5.47
2017-12-04T09:06:49.833Z,5.80
2017-12-04T09:07:53.117Z,5.57
2017-12-04T09:08:56.439Z,5.53
2017-12-04T09:09:58.966Z,5.90
2017-12-04T09:11:02.249Z,6.87
2017-12-04T09:12:05.527Z,6.55
2017-12-04T09:13:08.041Z,6.20
2017-12-04T09:14:10.593Z,7.18
2017-12-04T09:15:13.109Z,7.07
2017-12-04T09:16:15.626Z,6.78
2017-12-04T09:17:18.141Z,6.20
2017-12-04T09:18:20.677Z,7.22
2017-12-04T09:19:23.234Z,6.03
2017-12-04T09:20:25.751Z,6.05
2017-12-04T09:21:28.264Z,5.97
2017-12-04T09:22:30.776Z,5.82
2017-12-04T09:23:33.320Z,6.55
2017-12-04T09:24:35.829Z,7.25
2017-12-04T09:25:39.154Z,7.05
2017-12-04T09:26:41.675Z,6.43
2017-12-04T09:27:44.954Z,5.20
2017-12-04T09:28:48.243Z,5.50
2017-12-04T09:29:51.522Z,6.28
2017-12-04T09:30:54.834Z,6.10
2017-12-04T09:31:57.345Z,4.82
2017-12-04T09:32:59.857Z,5.07
2017-12-04T09:34:02.403Z,5.10
2017-12-04T09:35:05.689Z,4.70
2017-12-04T09:36:08.961Z,4.68
2017-12-04T09:37:11.481Z,4.43
2017-12-04T09:38:14.010Z,4.45
2017-12-04T09:39:17.341Z,4.57
2017-12-04T09:40:19.848Z,4.18
2017-12-04T09:41:23.130Z,4.95
2017-12-04T09:42:25.643Z,3.95
2017-12-04T09:43:28.158Z,4.28
2017-12-04T09:44:30.720Z,3.90
2017-12-04T09:45:33.237Z,4.53
2017-12-04T09:46:35.746Z,4.20
2017-12-04T09:47:38.254Z,4.22
2017-12-04T09:48:40.772Z,3.20
2017-12-04T09:49:43.329Z,3.25
2017-12-04T09:50:45.841Z,3.10
2017-12-04T09:51:48.365Z,2.40
2017-12-04T09:52:50.878Z,3.00
2017-12-04T09:53:53.477Z,1.70
2017-12-04T09:54:55.993Z,2.20
2017-12-04T09:55:59.328Z,2.45
2017-12-04T09:57:01.857Z,1.85
2017-12-04T09:58:04.384Z,1.40
2017-12-04T09:59:06.928Z,1.52
2017-12-04T10:00:09.441Z,2.10
2017-12-04T10:01:12.751Z,1.48
2017-12-04T10:02:15.311Z,1.50
2017-12-04T10:03:17.825Z,1.83
2017-12-04T10:04:20.338Z,1.55
2017-12-04T10:05:22.861Z,1.65
2017-12-04T10:06:25.373Z,1.62
2017-12-04T10:07:27.904Z,1.75
2017-12-04T10:08:30.461Z,1.67
2017-12-04T10:09:32.981Z,2.12
2017-12-04T10:10:35.501Z,1.30
2017-12-04T10:11:38.009Z,1.40
2017-12-04T10:12:40.521Z,2.33
2017-12-04T10:13:43.064Z,1.73
2017-12-04T10:14:45.631Z,1.65
2017-12-04T10:15:48.171Z,1.30
2017-12-04T10:16:50.681Z,1.50
2017-12-04T10:17:53.188Z,1.40
2017-12-04T10:18:56.473Z,1.33
2017-12-04T10:19:59.798Z,1.12
2017-12-04T10:21:02.325Z,1.55
2017-12-04T10:22:04.842Z,1.40
2017-12-04T10:23:07.369Z,1.23
2017-12-04T10:24:09.881Z,1.60
2017-12-04T10:25:12.438Z,1.25
2017-12-04T10:26:14.963Z,1.10
2017-12-04T10:27:17.481Z,1.80
2017-12-04T10:28:19.993Z,1.25
2017-12-04T10:29:22.501Z,1.23
2017-12-04T10:30:25.046Z,1.30
2017-12-04T10:31:27.557Z,1.48
2017-12-04T10:32:30.077Z,1.33
2017-12-04T10:33:32.581Z,1.20
2017-12-04T10:34:35.098Z,1.30
2017-12-04T10:35:37.644Z,1.00
2017-12-04T10:36:40.925Z,1.48
2017-12-04T10:37:44.201Z,1.48
2017-12-04T10:38:47.489Z,1.17
2017-12-04T10:39:50.801Z,1.30
2017-12-04T10:40:53.320Z,1.23
2017-12-04T10:41:55.842Z,1.10
2017-12-04T10:42:58.401Z,1.30
2017-12-04T10:44:00.913Z,1.37
2017-12-04T10:45:03.484Z,1.10
2017-12-04T10:46:06.002Z,1.15
2017-12-04T10:47:08.518Z,2.05
2017-12-04T10:48:11.027Z,1.10
2017-12-04T10:49:13.542Z,1.10
2017-12-04T10:50:16.099Z,1.48
2017-12-04T10:51:18.617Z,1.33
2017-12-04T10:52:21.126Z,1.40
2017-12-04T10:53:23.648Z,1.10
2017-12-04T10:54:26.161Z,3.08
2017-12-04T10:55:28.708Z,1.12
2017-12-04T10:56:31.230Z,1.08
2017-12-04T10:57:34.549Z,1.00
2017-12-04T10:58:37.072Z,1.10
2017-12-04T10:59:40.346Z,1.55
2017-12-04T11:00:43.630Z,1.30
2017-12-04T11:01:46.914Z,1.23
2017-12-04T11:02:50.232Z,1.30
2017-12-04T11:03:52.758Z,1.27
2017-12-04T11:04:55.281Z,0.90
2017-12-04T11:05:57.830Z,1.23
2017-12-04T11:07:00.407Z,1.10
2017-12-04T11:08:02.921Z,1.12
2017-12-04T11:09:05.429Z,2.00
2017-12-04T11:10:07.947Z,1.40
2017-12-04T11:11:10.470Z,2.50
2017-12-04T11:12:13.037Z,1.35
2017-12-04T11:13:15.549Z,1.40
2017-12-04T11:14:18.066Z,1.40
2017-12-04T11:15:20.590Z,1.60
2017-12-04T11:16:23.873Z,1.60
2017-12-04T11:17:27.207Z,1.40
2017-12-04T11:18:29.757Z,1.80
2017-12-04T11:19:32.275Z,2.37
2017-12-04T11:20:34.793Z,1.25
2017-12-04T11:21:37.342Z,1.40
2017-12-04T11:22:39.862Z,1.65
2017-12-04T11:23:42.371Z,1.62
2017-12-04T11:24:44.917Z,2.10
2017-12-04T11:25:47.429Z,1.35
2017-12-04T11:26:49.982Z,1.42
2017-12-04T11:27:52.498Z,1.45
2017-12-04T11:28:55.010Z,2.00
2017-12-04T11:29:57.522Z,2.00
2017-12-04T11:31:00.076Z,1.77
2017-12-04T11:32:02.629Z,1.95
2017-12-04T11:33:05.139Z,1.40
2017-12-04T11:34:07.658Z,2.30
2017-12-04T11:35:10.174Z,1.23
2017-12-04T11:36:12.687Z,1.92
2017-12-04T11:37:15.233Z,1.50
2017-12-04T11:38:17.805Z,1.62
2017-12-04T11:39:20.323Z,1.87
2017-12-04T11:40:22.837Z,1.60
2017-12-04T11:41:25.350Z,1.35
2017-12-04T11:42:27.874Z,1.83
2017-12-04T11:43:30.433Z,1.85
2017-12-04T11:44:32.945Z,1.77
2017-12-04T11:45:35.467Z,1.17
2017-12-04T11:46:37.984Z,1.80
2017-12-04T11:47:40.498Z,1.80
2017-12-04T11:48:43.064Z,1.37
2017-12-04T11:49:45.582Z,1.95
2017-12-04T11:50:48.106Z,3.00
2017-12-04T11:51:50.628Z,1.58
2017-12-04T11:52:53.917Z,1.95
2017-12-04T11:53:57.234Z,1.50
2017-12-04T11:54:59.760Z,2.17
2017-12-04T11:56:03.051Z,1.85
2017-12-04T11:57:06.329Z,1.85
2017-12-04T11:58:09.607Z,1.55
2017-12-04T11:59:12.173Z,1.60
2017-12-04T12:00:14.692Z,1.70
2017-12-04T12:01:17.228Z,1.65
2017-12-04T12:02:20.511Z,2.15
2017-12-04T12:03:23.789Z,1.70
2017-12-04T12:04:27.104Z,2.10
2017-12-04T12:05:29.632Z,1.42
2017-12-04T12:06:32.914Z,1.80
2017-12-04T12:07:36.195Z,2.05
2017-12-04T12:08:39.482Z,2.28
2017-12-04T12:09:42.803Z,1.70
2017-12-04T12:10:45.316Z,1.75
2017-12-04T12:11:47.845Z,1.70
2017-12-04T12:12:50.399Z,2.17
2017-12-04T12:13:52.958Z,1.80
2017-12-04T12:14:55.513Z,1.58
2017-12-04T12:15:58.775Z,2.00
2017-12-04T12:17:01.294Z,2.58
2017-12-04T12:18:03.807Z,2.10
2017-12-04T12:19:07.117Z,2.30
2017-12-04T12:20:09.649Z,2.45
2017-12-04T12:21:12.162Z,2.25
2017-12-04T12:22:14.705Z,2.25
2017-12-04T12:23:17.977Z,2.10
2017-12-04T12:24:21.295Z,2.50
2017-12-04T12:25:23.842Z,2.00
2017-12-04T12:26:27.113Z,2.50
2017-12-04T12:27:30.400Z,1.77
2017-12-04T12:28:33.700Z,3.12
2017-12-04T12:29:36.220Z,2.85
2017-12-04T12:30:38.760Z,2.40
2017-12-04T12:31:41.277Z,2.55
2017-12-04T12:32:44.568Z,2.50
2017-12-04T12:33:47.850Z,1.98
2017-12-04T12:34:51.173Z,2.35
2017-12-04T12:35:53.680Z,2.10
2017-12-04T12:36:56.197Z,2.45
2017-12-04T12:37:58.717Z,2.40
2017-12-04T12:39:01.232Z,2.28
2017-12-04T12:40:03.805Z,2.10
2017-12-04T12:41:06.328Z,1.95
2017-12-04T12:42:08.850Z,2.15
2017-12-04T12:43:11.370Z,2.05
2017-12-04T12:44:14.010Z,2.60
2017-12-04T12:45:16.565Z,2.42
2017-12-04T12:46:19.073Z,2.15
2017-12-04T12:47:21.582Z,2.05
2017-12-04T12:48:24.094Z,2.20
2017-12-04T12:49:27.404Z,2.10
2017-12-04T12:50:29.917Z,1.60
2017-12-04T12:51:34.082Z,2.10
2017-12-04T12:52:36.625Z,2.75
2017-12-04T12:53:39.173Z,1.95
2017-12-04T12:54:42.453Z,2.75
2017-12-04T12:55:45.770Z,1.80
2017-12-04T12:56:48.290Z,2.20
2017-12-04T12:57:50.807Z,1.98
2017-12-04T12:58:53.352Z,1.80
2017-12-04T12:59:55.857Z,1.60
2017-12-04T13:00:59.173Z,1.90
2017-12-04T13:02:01.683Z,1.73
2017-12-04T13:03:04.190Z,2.10
2017-12-04T13:04:06.706Z,1.80
2017-12-04T13:05:09.222Z,1.83
2017-12-04T13:06:11.790Z,2.58
2017-12-04T13:07:14.308Z,2.58
2017-12-04T13:08:16.825Z,2.55
2017-12-04T13:10:28.233Z,2.28
2017-12-04T13:11:32.007Z,1.92
2017-12-04T13:12:34.518Z,2.20
2017-12-04T13:13:37.030Z,2.10
2017-12-04T13:14:39.548Z,2.12
2017-12-04T13:15:42.073Z,3.17
2017-12-04T13:16:44.659Z,2.60
2017-12-04T13:17:47.937Z,2.33
2017-12-04T13:18:50.463Z,2.70
2017-12-04T13:19:52.974Z,2.60
2017-12-04T13:20:56.253Z,2.10
2017-12-04T13:21:59.568Z,1.83
2017-12-04T13:23:02.090Z,3.72
2017-12-04T13:24:04.636Z,2.50
2017-12-04T13:25:07.181Z,2.53
2017-12-04T13:26:09.706Z,3.00
2017-12-04T13:27:13.017Z,2.72
2017-12-04T13:28:15.610Z,1.73
2017-12-04T13:29:18.147Z,2.50
2017-12-04T13:30:20.669Z,2.87
2017-12-04T13:31:23.186Z,2.37
2017-12-04T13:32:37.710Z,2.30
2017-12-04T13:33:52.095Z,2.28
2017-12-04T13:35:06.612Z,2.00
2017-12-04T13:36:21.022Z,2.12
2017-12-04T13:37:23.534Z,2.47
2017-12-04T13:38:26.078Z,2.20
2017-12-04T13:39:28.589Z,2.55
2017-12-04T13:40:31.098Z,3.00
2017-12-04T13:41:34.413Z,2.60
2017-12-04T13:42:36.928Z,2.10